createdAt,value
2017-08-18T00:00:51.736Z,944.5
2017-08-18T00:01:59.967Z,944.4
2017-08-18T00:03:08.036Z,944.5
2017-08-18T00:04:16.001Z,944.5
2017-08-18T00:05:24.089Z,944.5
2017-08-18T00:06:32.215Z,944.5
2017-08-18T00:07:40.266Z,944.5
2017-08-18T00:08:48.411Z,944.4
2017-08-18T00:09:56.442Z,944.5
2017-08-18T00:11:04.653Z,944.5
2017-08-18T00:12:12.622Z,944.5
2017-08-18T00:13:20.706Z,944.5
2017-08-18T00:14:28.851Z,944.5
2017-08-18T00:15:36.884Z,944.5
2017-08-18T00:16:44.973Z,944.5
2017-08-18T00:17:53.060Z,944.5
2017-08-18T00:19:01.150Z,944.5
2017-08-18T00:20:09.472Z,944.5
2017-08-18T00:21:17.323Z,944.5
2017-08-18T00:22:25.422Z,944.5
2017-08-18T00:23:33.511Z,944.5
2017-08-18T00:24:41.600Z,944.5
2017-08-18T00:25:49.809Z,944.5
2017-08-18T00:26:57.777Z,944.5
2017-08-18T00:28:05.865Z,944.5
2017-08-18T00:29:13.952Z,944.5
2017-08-18T00:30:22.101Z,944.5
2017-08-18T00:31:30.183Z,944.5
2017-08-18T00:32:38.217Z,944.5
2017-08-18T00:33:46.477Z,944.5
2017-08-18T00:34:54.418Z,944.5
2017-08-18T00:36:02.482Z,944.5
2017-08-18T00:37:10.689Z,944.5
2017-08-18T00:38:18.662Z,944.5
2017-08-18T00:39:26.747Z,944.5
2017-08-18T00:40:34.833Z,944.5
2017-08-18T00:41:42.923Z,944.5
2017-08-18T00:42:51.066Z,944.4
2017-08-18T00:43:59.099Z,944.4
2017-08-18T00:45:07.188Z,944.4
2017-08-18T00:46:15.404Z,944.4
2017-08-18T00:47:23.390Z,944.4
2017-08-18T00:48:31.515Z,944.4
2017-08-18T00:49:39.544Z,944.4
2017-08-18T00:50:47.635Z,944.4
2017-08-18T00:51:55.722Z,944.4
2017-08-18T00:53:03.812Z,944.5
2017-08-18T00:54:12.026Z,944.5
2017-08-18T00:55:19.987Z,944.5
2017-08-18T00:56:28.073Z,944.5
2017-08-18T00:57:36.163Z,944.5
2017-08-18T00:58:44.251Z,944.4
2017-08-18T00:59:52.395Z,944.4
2017-08-18T01:01:00.432Z,944.4
2017-08-18T01:02:08.637Z,944.4
2017-08-18T01:03:16.605Z,944.4
2017-08-18T01:04:24.696Z,944.4
2017-08-18T01:05:32.839Z,944.4
2017-08-18T01:06:40.868Z,944.4
2017-08-18T01:07:48.959Z,944.4
2017-08-18T01:08:57.047Z,944.4
2017-08-18T01:10:05.133Z,944.4
2017-08-18T01:11:13.380Z,944.4
2017-08-18T01:12:21.316Z,944.4
2017-08-18T01:13:29.401Z,944.4
2017-08-18T01:14:37.491Z,944.4
2017-08-18T01:15:45.574Z,944.4
2017-08-18T01:16:53.718Z,944.4
2017-08-18T01:18:01.809Z,944.4
2017-08-18T01:19:09.840Z,944.4
2017-08-18T01:20:18.064Z,944.4
2017-08-18T01:21:26.018Z,944.4
2017-08-18T01:22:34.228Z,944.3
2017-08-18T01:23:42.196Z,944.3
2017-08-18T01:24:50.283Z,944.3
2017-08-18T01:25:58.371Z,944.3
2017-08-18T01:27:06.458Z,944.3
2017-08-18T01:28:14.603Z,944.3
2017-08-18T01:29:22.719Z,944.3
2017-08-18T01:30:30.723Z,944.2
2017-08-18T01:31:38.811Z,944.2
2017-08-18T01:32:47.046Z,944.2
2017-08-18T01:33:55.177Z,944.2
2017-08-18T01:35:03.081Z,944.2
2017-08-18T01:36:11.162Z,944.2
2017-08-18T01:37:19.252Z,944.2
2017-08-18T01:38:27.426Z,944.2
2017-08-18T01:39:35.487Z,944.2
2017-08-18T01:40:43.518Z,944.2
2017-08-18T01:41:51.606Z,944.2
2017-08-18T01:42:59.772Z,944.2
2017-08-18T01:44:07.782Z,944.2
2017-08-18T01:45:15.997Z,944.2
2017-08-18T01:46:23.958Z,944.2
2017-08-18T01:47:32.134Z,944.2
2017-08-18T01:48:40.134Z,944.2
2017-08-18T01:49:48.278Z,944.2
2017-08-18T01:50:56.367Z,944.1
2017-08-18T01:52:04.475Z,944.2
2017-08-18T01:53:12.488Z,944.2
2017-08-18T01:54:20.576Z,944.2
2017-08-18T01:55:28.667Z,944.2
2017-08-18T01:56:36.866Z,944.1
2017-08-18T01:57:44.841Z,944.1
2017-08-18T01:58:52.928Z,944.1
2017-08-18T02:00:01.017Z,944.1
2017-08-18T02:01:09.251Z,944.2
2017-08-18T02:02:17.314Z,944.1
2017-08-18T02:03:25.281Z,944.1
2017-08-18T02:04:33.369Z,944.1
2017-08-18T02:05:41.517Z,944.1
2017-08-18T02:06:49.611Z,944.1
2017-08-18T02:07:57.751Z,944.1
2017-08-18T02:09:05.720Z,944.1
2017-08-18T02:10:13.810Z,944.1
2017-08-18T02:11:21.902Z,944.1
2017-08-18T02:12:30.004Z,944.1
2017-08-18T02:13:38.144Z,944.0
2017-08-18T02:14:46.207Z,944.0
2017-08-18T02:15:54.270Z,944.0
2017-08-18T02:17:02.354Z,944.0
2017-08-18T02:18:10.442Z,944.0
2017-08-18T02:19:18.679Z,944.0
2017-08-18T02:20:26.626Z,944.0
2017-08-18T02:21:34.826Z,944.0
2017-08-18T02:22:42.793Z,944.0
2017-08-18T02:23:50.882Z,944.0
2017-08-18T02:24:59.056Z,944.0
2017-08-18T02:26:07.056Z,944.0
2017-08-18T02:27:15.146Z,944.0
2017-08-18T02:28:23.235Z,944.0
2017-08-18T02:29:31.334Z,944.0
2017-08-18T02:30:39.532Z,944.0
2017-08-18T02:31:47.500Z,944.0
2017-08-18T02:32:55.590Z,944.0
2017-08-18T02:34:03.675Z,944.0
2017-08-18T02:35:11.762Z,944.0
2017-08-18T02:36:19.915Z,944.0
2017-08-18T02:37:28.059Z,944.0
2017-08-18T02:38:36.028Z,944.0
2017-08-18T02:39:44.117Z,943.9
2017-08-18T02:40:52.206Z,944.0
2017-08-18T02:42:00.347Z,944.0
2017-08-18T02:43:08.466Z,944.0
2017-08-18T02:44:16.468Z,944.0
2017-08-18T02:45:24.559Z,944.0
2017-08-18T02:46:32.648Z,944.0
2017-08-18T02:47:40.792Z,944.0
2017-08-18T02:49:56.940Z,944.0
2017-08-18T02:51:05.000Z,944.0
2017-08-18T02:52:13.121Z,944.0
2017-08-18T02:53:21.296Z,943.9
2017-08-18T02:54:29.261Z,944.0
2017-08-18T02:55:37.538Z,943.9
2017-08-18T02:56:45.439Z,943.9
2017-08-18T02:57:53.528Z,943.9
2017-08-18T02:59:01.673Z,943.9
2017-08-18T03:00:09.787Z,943.9
2017-08-18T03:01:17.792Z,943.8
2017-08-18T03:02:25.881Z,943.9
2017-08-18T03:03:33.970Z,943.8
2017-08-18T03:04:42.179Z,943.8
2017-08-18T03:05:50.145Z,943.8
2017-08-18T03:06:58.233Z,943.9
2017-08-18T03:08:06.325Z,943.8
2017-08-18T03:09:14.645Z,943.8
2017-08-18T03:10:22.573Z,943.8
2017-08-18T03:11:30.587Z,943.8
2017-08-18T03:12:38.677Z,943.8
2017-08-18T03:13:46.772Z,943.8
2017-08-18T03:14:55.036Z,943.8
2017-08-18T03:16:03.039Z,943.8
2017-08-18T03:17:11.039Z,943.8
2017-08-18T03:18:19.137Z,943.7
2017-08-18T03:19:27.297Z,943.8
2017-08-18T03:20:35.315Z,943.7
2017-08-18T03:21:43.523Z,943.8
2017-08-18T03:22:51.489Z,943.8
2017-08-18T03:23:59.722Z,943.8
2017-08-18T03:25:07.724Z,943.8
2017-08-18T03:26:15.757Z,943.8
2017-08-18T03:27:23.911Z,943.8
2017-08-18T03:28:31.960Z,943.8
2017-08-18T03:29:40.018Z,943.8
2017-08-18T03:30:48.127Z,943.8
2017-08-18T03:31:56.198Z,943.8
2017-08-18T03:33:04.340Z,943.8
2017-08-18T03:34:12.458Z,943.8
2017-08-18T03:35:20.459Z,943.8
2017-08-18T03:36:28.602Z,943.8
2017-08-18T03:37:36.742Z,943.8
2017-08-18T03:38:44.780Z,943.8
2017-08-18T03:39:52.811Z,943.8
2017-08-18T03:41:00.968Z,943.8
2017-08-18T03:42:09.003Z,943.8
2017-08-18T03:43:17.089Z,943.8
2017-08-18T03:44:25.232Z,943.8
2017-08-18T03:45:33.264Z,943.9
2017-08-18T03:46:41.352Z,943.9
2017-08-18T03:47:49.439Z,943.9
2017-08-18T03:48:57.530Z,943.9
2017-08-18T03:50:05.673Z,943.9
2017-08-18T03:51:13.705Z,943.8
2017-08-18T03:52:21.796Z,943.9
2017-08-18T03:53:29.888Z,943.9
2017-08-18T03:54:37.971Z,943.8
2017-08-18T03:55:46.179Z,943.9
2017-08-18T03:56:54.202Z,943.8
2017-08-18T03:58:02.237Z,943.9
2017-08-18T03:59:10.322Z,943.8
2017-08-18T04:00:18.570Z,943.8
2017-08-18T04:01:26.584Z,943.8
2017-08-18T04:02:34.587Z,943.8
2017-08-18T04:03:42.677Z,943.8
2017-08-18T04:04:50.819Z,943.8
2017-08-18T04:05:58.853Z,943.8
2017-08-18T04:07:07.083Z,943.8
2017-08-18T04:08:15.036Z,943.7
2017-08-18T04:09:23.115Z,943.8
2017-08-18T04:10:31.205Z,943.8
2017-08-18T04:11:39.293Z,943.8
2017-08-18T04:12:47.438Z,943.8
2017-08-18T04:13:55.471Z,943.8
2017-08-18T04:15:03.557Z,943.8
2017-08-18T04:16:11.645Z,943.8
2017-08-18T04:17:19.733Z,943.8
2017-08-18T04:18:27.879Z,943.9
2017-08-18T04:19:35.910Z,943.9
2017-08-18T04:20:44.009Z,943.9
2017-08-18T04:21:52.085Z,943.9
2017-08-18T04:23:00.175Z,943.9
2017-08-18T04:24:08.460Z,943.8
2017-08-18T04:25:16.350Z,943.8
2017-08-18T04:26:24.439Z,943.8
2017-08-18T04:27:32.711Z,943.8
2017-08-18T04:28:40.736Z,943.8
2017-08-18T04:29:48.765Z,943.8
2017-08-18T04:30:56.793Z,943.8
2017-08-18T04:32:05.062Z,943.8
2017-08-18T04:33:12.971Z,943.8
2017-08-18T04:34:21.063Z,943.8
2017-08-18T04:35:29.201Z,943.8
2017-08-18T04:36:37.233Z,943.8
2017-08-18T04:37:45.321Z,943.8
2017-08-18T04:38:53.414Z,943.8
2017-08-18T04:40:01.498Z,943.8
2017-08-18T04:41:09.640Z,943.8
2017-08-18T04:42:17.675Z,943.7
2017-08-18T04:43:25.763Z,943.7
2017-08-18T04:44:33.973Z,943.7
2017-08-18T04:45:41.940Z,943.7
2017-08-18T04:46:50.082Z,943.7
2017-08-18T04:47:58.116Z,943.7
2017-08-18T04:49:06.205Z,943.6
2017-08-18T04:50:14.450Z,943.7
2017-08-18T04:51:22.384Z,943.6
2017-08-18T04:52:30.624Z,943.7
2017-08-18T04:53:38.555Z,943.6
2017-08-18T04:54:46.787Z,943.7
2017-08-18T04:55:54.731Z,943.7
2017-08-18T04:57:02.827Z,943.7
2017-08-18T04:58:10.985Z,943.7
2017-08-18T04:59:18.998Z,943.7
2017-08-18T05:00:27.215Z,943.7
2017-08-18T05:01:35.175Z,943.7
2017-08-18T05:02:43.263Z,943.7
2017-08-18T05:03:51.426Z,943.7
2017-08-18T05:04:59.498Z,943.7
2017-08-18T05:06:07.526Z,943.7
2017-08-18T05:07:15.617Z,943.7
2017-08-18T05:08:23.704Z,943.8
2017-08-18T05:09:31.910Z,943.7
2017-08-18T05:10:39.882Z,943.8
2017-08-18T05:11:47.970Z,943.8
2017-08-18T05:12:56.057Z,943.8
2017-08-18T05:14:04.213Z,943.8
2017-08-18T05:15:12.295Z,943.8
2017-08-18T05:16:20.375Z,943.8
2017-08-18T05:17:28.407Z,943.7
2017-08-18T05:18:36.560Z,943.7
2017-08-18T05:19:44.587Z,943.8
2017-08-18T05:20:52.729Z,943.8
2017-08-18T05:22:00.760Z,943.8
2017-08-18T05:23:08.848Z,943.8
2017-08-18T05:24:16.937Z,943.8
2017-08-18T05:25:25.025Z,943.8
2017-08-18T05:26:33.166Z,943.8
2017-08-18T05:27:41.341Z,943.7
2017-08-18T05:28:49.287Z,943.7
2017-08-18T05:29:57.379Z,943.6
2017-08-18T05:31:05.466Z,943.6
2017-08-18T05:32:13.672Z,943.6
2017-08-18T05:33:21.656Z,943.5
2017-08-18T05:34:29.743Z,943.4
2017-08-18T05:35:37.831Z,943.3
2017-08-18T05:36:45.918Z,943.3
2017-08-18T05:37:54.105Z,943.2
2017-08-18T05:39:02.093Z,943.1
2017-08-18T05:40:10.184Z,943.1
2017-08-18T05:41:18.272Z,943.1
2017-08-18T05:42:26.357Z,943.1
2017-08-18T05:43:34.503Z,943.2
2017-08-18T05:44:42.534Z,943.2
2017-08-18T05:45:50.704Z,943.2
2017-08-18T05:46:58.717Z,943.2
2017-08-18T05:48:06.858Z,943.2
2017-08-18T05:49:14.949Z,943.2
2017-08-18T05:50:22.974Z,943.2
2017-08-18T05:51:31.068Z,943.2
2017-08-18T05:52:39.152Z,943.2
2017-08-18T05:53:47.239Z,943.1
2017-08-18T05:54:55.387Z,943.2
2017-08-18T05:56:03.415Z,943.2
2017-08-18T05:57:11.506Z,943.3
2017-08-18T05:58:19.592Z,943.3
2017-08-18T05:59:27.734Z,943.3
2017-08-18T06:00:36.011Z,943.3
2017-08-18T06:01:43.856Z,943.4
2017-08-18T06:02:51.943Z,943.4
2017-08-18T06:04:00.151Z,943.5
2017-08-18T06:05:08.120Z,943.5
2017-08-18T06:06:16.609Z,943.5
2017-08-18T06:07:24.316Z,943.5
2017-08-18T06:08:32.382Z,943.4
2017-08-18T06:09:40.555Z,943.5
2017-08-18T06:10:48.564Z,943.5
2017-08-18T06:11:56.768Z,943.4
2017-08-18T06:13:05.113Z,943.5
2017-08-18T06:14:12.823Z,943.5
2017-08-18T06:15:20.912Z,943.5
2017-08-18T06:16:29.001Z,943.5
2017-08-18T06:17:37.147Z,943.5
2017-08-18T06:18:45.186Z,943.5
2017-08-18T06:19:53.325Z,943.5
2017-08-18T06:21:01.356Z,943.5
2017-08-18T06:22:09.640Z,943.6
2017-08-18T06:23:17.585Z,943.6
2017-08-18T06:24:25.616Z,943.6
2017-08-18T06:25:33.722Z,943.6
2017-08-18T06:26:41.991Z,943.5
2017-08-18T06:27:49.881Z,943.6
2017-08-18T06:28:58.034Z,943.5
2017-08-18T06:30:06.074Z,943.5
2017-08-18T06:31:14.161Z,943.5
2017-08-18T06:32:22.259Z,943.5
2017-08-18T06:33:30.340Z,943.5
2017-08-18T06:34:38.485Z,943.5
2017-08-18T06:35:46.576Z,943.5
2017-08-18T06:36:54.604Z,943.5
2017-08-18T06:38:02.688Z,943.6
2017-08-18T06:39:10.774Z,943.6
2017-08-18T06:40:18.928Z,943.6
2017-08-18T06:41:27.277Z,943.6
2017-08-18T06:42:35.045Z,943.6
2017-08-18T06:43:43.134Z,943.6
2017-08-18T06:44:51.224Z,943.5
2017-08-18T06:45:59.449Z,943.5
2017-08-18T06:47:07.395Z,943.5
2017-08-18T06:48:15.532Z,943.5
2017-08-18T06:49:23.569Z,943.5
2017-08-18T06:50:31.743Z,943.5
2017-08-18T06:51:39.870Z,943.5
2017-08-18T06:52:47.834Z,943.5
2017-08-18T06:53:55.922Z,943.5
2017-08-18T06:55:04.175Z,943.5
2017-08-18T06:56:12.099Z,943.5
2017-08-18T06:57:20.246Z,943.5
2017-08-18T06:58:28.400Z,943.5
2017-08-18T06:59:36.407Z,943.4
2017-08-18T07:00:44.450Z,943.4
2017-08-18T07:01:52.539Z,943.4
2017-08-18T07:03:00.682Z,943.3
2017-08-18T07:04:08.720Z,943.3
2017-08-18T07:05:16.810Z,943.3
2017-08-18T07:06:24.932Z,943.3
2017-08-18T07:07:33.043Z,943.2
2017-08-18T07:08:41.194Z,943.3
2017-08-18T07:09:49.158Z,943.3
2017-08-18T07:10:57.307Z,943.3
2017-08-18T07:12:05.617Z,943.3
2017-08-18T07:13:13.640Z,943.2
2017-08-18T07:14:21.623Z,943.2
2017-08-18T07:15:29.604Z,943.2
2017-08-18T07:16:37.692Z,943.3
2017-08-18T07:17:45.985Z,943.2
2017-08-18T07:18:53.917Z,943.2
2017-08-18T07:20:02.201Z,943.2
2017-08-18T07:21:10.086Z,943.2
2017-08-18T07:22:18.235Z,943.2
2017-08-18T07:23:26.339Z,943.2
2017-08-18T07:24:34.309Z,943.1
2017-08-18T07:25:42.511Z,943.1
2017-08-18T07:26:50.578Z,943.1
2017-08-18T07:27:58.590Z,943.2
2017-08-18T07:29:06.706Z,943.2
2017-08-18T07:30:14.786Z,943.2
2017-08-18T07:31:23.516Z,943.2
2017-08-18T07:32:31.160Z,943.3
2017-08-18T07:33:39.370Z,943.3
2017-08-18T07:34:47.156Z,943.3
2017-08-18T07:35:55.345Z,943.3
2017-08-18T07:37:03.662Z,943.2
2017-08-18T07:38:11.581Z,943.2
2017-08-18T07:39:20.176Z,943.3
2017-08-18T07:40:27.804Z,943.3
2017-08-18T07:41:35.644Z,943.4
2017-08-18T07:42:44.155Z,943.3
2017-08-18T07:43:51.960Z,943.4
2017-08-18T07:44:59.981Z,943.3
2017-08-18T07:46:08.169Z,943.3
2017-08-18T07:47:16.226Z,943.3
2017-08-18T07:48:24.568Z,943.2
2017-08-18T07:49:32.401Z,943.3
2017-08-18T07:50:40.475Z,943.2
2017-08-18T07:51:48.614Z,943.2
2017-08-18T07:52:56.550Z,943.2
2017-08-18T07:54:05.000Z,943.2
2017-08-18T07:55:13.337Z,943.3
2017-08-18T07:56:20.867Z,943.2
2017-08-18T07:57:29.021Z,943.2
2017-08-18T07:58:37.290Z,943.2
2017-08-18T07:59:45.591Z,943.2
2017-08-18T08:00:53.274Z,943.2
2017-08-18T08:02:01.347Z,943.3
2017-08-18T08:03:09.484Z,943.3
2017-08-18T08:04:17.500Z,943.3
2017-08-18T08:05:25.903Z,943.3
2017-08-18T08:06:33.769Z,943.3
2017-08-18T08:07:41.852Z,943.3
2017-08-18T08:08:50.010Z,943.3
2017-08-18T08:09:58.018Z,943.3
2017-08-18T08:11:06.631Z,943.3
2017-08-18T08:12:14.295Z,943.3
2017-08-18T08:13:22.354Z,943.2
2017-08-18T08:14:30.330Z,943.2
2017-08-18T08:15:38.459Z,943.2
2017-08-18T08:16:47.118Z,943.2
2017-08-18T08:17:54.632Z,943.2
2017-08-18T08:19:02.675Z,943.2
2017-08-18T08:20:10.945Z,943.2
2017-08-18T08:21:18.844Z,943.2
2017-08-18T08:22:27.534Z,943.2
2017-08-18T08:23:35.145Z,943.2
2017-08-18T08:24:43.222Z,943.2
2017-08-18T08:25:51.113Z,943.2
2017-08-18T08:26:59.608Z,943.2
2017-08-18T08:28:07.889Z,943.3
2017-08-18T08:29:15.480Z,943.2
2017-08-18T08:30:23.585Z,943.2
2017-08-18T08:31:31.584Z,943.2
2017-08-18T08:32:39.760Z,943.2
2017-08-18T08:33:47.833Z,943.2
2017-08-18T08:34:55.916Z,943.2
2017-08-18T08:36:04.028Z,943.2
2017-08-18T08:37:12.160Z,943.2
2017-08-18T08:38:20.285Z,943.1
2017-08-18T08:39:28.508Z,943.1
2017-08-18T08:40:36.390Z,943.1
2017-08-18T08:41:44.418Z,943.1
2017-08-18T08:42:52.937Z,943.2
2017-08-18T08:44:01.139Z,943.2
2017-08-18T08:45:09.290Z,943.2
2017-08-18T08:46:16.798Z,943.2
2017-08-18T08:47:24.857Z,943.2
2017-08-18T08:48:33.145Z,943.2
2017-08-18T08:49:41.187Z,943.2
2017-08-18T08:50:49.422Z,943.2
2017-08-18T08:51:57.253Z,943.2
2017-08-18T08:53:05.400Z,943.2
2017-08-18T08:54:13.618Z,943.2
2017-08-18T08:55:21.597Z,943.2
2017-08-18T08:56:30.222Z,943.2
2017-08-18T08:57:37.748Z,943.2
2017-08-18T08:58:46.394Z,943.2
2017-08-18T08:59:54.019Z,943.2
2017-08-18T09:01:02.105Z,943.1
2017-08-18T09:02:10.362Z,943.1
2017-08-18T09:03:18.263Z,943.1
2017-08-18T09:04:26.225Z,943.0
2017-08-18T09:05:34.357Z,943.1
2017-08-18T09:06:42.469Z,943.1
2017-08-18T09:07:50.831Z,943.1
2017-08-18T09:08:58.644Z,943.0
2017-08-18T09:10:06.814Z,943.0
2017-08-18T09:11:14.849Z,943.0
2017-08-18T09:12:22.852Z,943.0
2017-08-18T09:13:31.204Z,943.0
2017-08-18T09:14:39.312Z,943.0
2017-08-18T09:15:47.148Z,943.0
2017-08-18T09:16:55.210Z,943.0
2017-08-18T09:18:03.404Z,943.0
2017-08-18T09:19:11.664Z,943.0
2017-08-18T09:20:19.479Z,943.0
2017-08-18T09:21:27.650Z,943.0
2017-08-18T09:22:35.738Z,943.0
2017-08-18T09:23:43.829Z,943.0
2017-08-18T09:24:52.075Z,943.0
2017-08-18T09:25:59.925Z,943.0
2017-08-18T09:27:08.036Z,942.9
2017-08-18T09:28:16.207Z,942.9
2017-08-18T09:29:24.228Z,942.9
2017-08-18T09:30:32.980Z,942.9
2017-08-18T09:31:40.388Z,942.9
2017-08-18T09:32:48.412Z,942.9
2017-08-18T09:33:56.494Z,942.8
2017-08-18T09:35:04.594Z,942.9
2017-08-18T09:36:12.890Z,942.8
2017-08-18T09:37:20.871Z,942.8
2017-08-18T09:38:29.087Z,942.8
2017-08-18T09:39:37.225Z,942.8
2017-08-18T09:40:45.115Z,942.7
2017-08-18T09:41:53.308Z,942.7
2017-08-18T09:43:01.512Z,942.7
2017-08-18T09:44:09.479Z,942.7
2017-08-18T09:45:17.458Z,942.6
2017-08-18T09:46:25.802Z,942.6
2017-08-18T09:47:34.260Z,942.6
2017-08-18T09:48:41.831Z,942.6
2017-08-18T09:49:49.820Z,942.5
2017-08-18T09:50:57.949Z,942.5
2017-08-18T09:52:06.068Z,942.5
2017-08-18T09:53:14.478Z,942.5
2017-08-18T09:54:22.261Z,942.5
2017-08-18T09:55:30.303Z,942.4
2017-08-18T09:56:38.415Z,942.4
2017-08-18T09:57:46.602Z,942.4
2017-08-18T09:58:54.756Z,942.4
2017-08-18T10:00:02.703Z,942.4
2017-08-18T10:01:10.704Z,942.4
2017-08-18T10:02:19.159Z,942.4
2017-08-18T10:03:26.926Z,942.4
2017-08-18T10:04:35.209Z,942.4
2017-08-18T10:05:43.149Z,942.3
2017-08-18T10:06:51.289Z,942.3
2017-08-18T10:07:59.222Z,942.3
2017-08-18T10:09:07.285Z,942.3
2017-08-18T10:10:15.533Z,942.3
2017-08-18T10:11:23.459Z,942.2
2017-08-18T10:12:31.634Z,942.2
2017-08-18T10:13:39.681Z,942.2
2017-08-18T10:14:47.768Z,942.2
2017-08-18T10:15:55.803Z,942.2
2017-08-18T10:17:03.939Z,942.2
2017-08-18T10:18:12.296Z,942.2
2017-08-18T10:19:20.186Z,942.2
2017-08-18T10:20:28.191Z,942.2
2017-08-18T10:21:36.557Z,942.2
2017-08-18T10:22:44.401Z,942.2
2017-08-18T10:23:52.481Z,942.2
2017-08-18T10:25:00.781Z,942.2
2017-08-18T10:26:08.655Z,942.2
2017-08-18T10:27:17.012Z,942.2
2017-08-18T10:28:24.866Z,942.2
2017-08-18T10:29:32.920Z,942.1
2017-08-18T10:30:41.116Z,942.1
2017-08-18T10:31:49.140Z,942.1
2017-08-18T10:32:57.735Z,942.1
2017-08-18T10:34:05.648Z,942.0
2017-08-18T10:35:13.374Z,942.0
2017-08-18T10:36:21.356Z,942.0
2017-08-18T10:37:29.442Z,942.0
2017-08-18T10:38:37.591Z,942.0
2017-08-18T10:39:45.624Z,942.0
2017-08-18T10:40:53.716Z,942.0
2017-08-18T10:42:01.802Z,941.9
2017-08-18T10:43:09.888Z,941.9
2017-08-18T10:44:18.035Z,942.0
2017-08-18T10:45:26.069Z,942.0
2017-08-18T10:46:34.159Z,941.9
2017-08-18T10:47:42.249Z,941.9
2017-08-18T10:48:50.339Z,941.9
2017-08-18T10:49:58.560Z,941.9
2017-08-18T10:51:06.520Z,941.9
2017-08-18T10:52:14.604Z,941.9
2017-08-18T10:53:22.695Z,941.9
2017-08-18T10:54:30.784Z,941.9
2017-08-18T10:55:38.930Z,941.9
2017-08-18T10:56:46.962Z,941.9
2017-08-18T10:57:55.052Z,941.9
2017-08-18T10:59:03.142Z,941.9
2017-08-18T11:00:11.233Z,941.9
2017-08-18T11:01:19.375Z,941.9
2017-08-18T11:02:27.409Z,941.8
2017-08-18T11:03:35.497Z,941.8
2017-08-18T11:04:43.588Z,941.8
2017-08-18T11:05:51.733Z,941.8
2017-08-18T11:06:59.873Z,941.7
2017-08-18T11:08:07.855Z,941.7
2017-08-18T11:09:15.950Z,941.7
2017-08-18T11:10:24.224Z,941.7
2017-08-18T11:11:32.119Z,941.7
2017-08-18T11:12:40.344Z,941.7
2017-08-18T11:13:48.310Z,941.7
2017-08-18T11:14:56.563Z,941.7
2017-08-18T11:16:04.489Z,941.7
2017-08-18T11:17:12.579Z,941.7
2017-08-18T11:18:20.724Z,941.6
2017-08-18T11:19:28.761Z,941.6
2017-08-18T11:20:36.851Z,941.6
2017-08-18T11:21:45.041Z,941.6
2017-08-18T11:22:53.035Z,941.6
2017-08-18T11:24:01.178Z,941.7
2017-08-18T11:25:09.294Z,941.6
2017-08-18T11:26:17.304Z,941.7
2017-08-18T11:27:25.391Z,941.6
2017-08-18T11:28:33.480Z,941.6
2017-08-18T11:29:41.714Z,941.6
2017-08-18T11:30:49.663Z,941.6
2017-08-18T11:31:57.764Z,941.6
2017-08-18T11:33:05.878Z,941.6
2017-08-18T11:34:14.093Z,941.5
2017-08-18T11:35:22.104Z,941.5
2017-08-18T11:36:30.134Z,941.5
2017-08-18T11:37:38.417Z,941.5
2017-08-18T11:38:46.327Z,941.4
2017-08-18T11:39:54.401Z,941.4
2017-08-18T11:41:02.555Z,941.4
2017-08-18T11:42:10.585Z,941.4
2017-08-18T11:43:18.671Z,941.4
2017-08-18T11:44:26.765Z,941.4
2017-08-18T11:45:34.854Z,941.4
2017-08-18T11:46:43.001Z,941.3
2017-08-18T11:47:51.515Z,941.2
2017-08-18T11:48:59.126Z,941.3
2017-08-18T11:50:07.870Z,941.2
2017-08-18T11:51:15.437Z,941.3
2017-08-18T11:52:24.994Z,941.2
2017-08-18T11:53:31.550Z,941.2
2017-08-18T11:54:39.578Z,941.2
2017-08-18T11:55:48.275Z,941.2
2017-08-18T11:56:57.445Z,941.2
2017-08-18T11:58:03.904Z,941.2
2017-08-18T11:59:12.636Z,941.1
2017-08-18T12:00:20.036Z,941.1
2017-08-18T12:01:28.749Z,941.1
2017-08-18T12:02:36.229Z,941.1
2017-08-18T12:03:46.110Z,941.0
2017-08-18T12:04:53.095Z,941.0
2017-08-18T12:06:00.481Z,941.0
2017-08-18T12:07:09.182Z,941.1
2017-08-18T12:08:16.652Z,941.0
2017-08-18T12:09:27.244Z,941.0
2017-08-18T12:10:32.832Z,941.0
2017-08-18T12:11:41.613Z,941.0
2017-08-18T12:12:49.698Z,941.0
2017-08-18T12:13:57.769Z,940.9
2017-08-18T12:15:05.272Z,940.9
2017-08-18T12:16:13.892Z,940.9
2017-08-18T12:17:21.379Z,940.9
2017-08-18T12:18:29.547Z,940.9
2017-08-18T12:19:38.027Z,940.8
2017-08-18T12:20:52.843Z,940.8
2017-08-18T12:21:55.467Z,940.8
2017-08-18T12:23:01.845Z,940.8
2017-08-18T12:24:10.737Z,940.8
2017-08-18T12:25:18.066Z,940.8
2017-08-18T12:26:29.332Z,940.7
2017-08-18T12:27:34.189Z,940.7
2017-08-18T12:28:42.401Z,940.7
2017-08-18T12:29:50.378Z,940.6
2017-08-18T12:30:59.023Z,940.6
2017-08-18T12:32:09.629Z,940.6
2017-08-18T12:33:14.779Z,940.6
2017-08-18T12:34:23.073Z,940.6
2017-08-18T12:35:30.820Z,940.5
2017-08-18T12:36:38.904Z,940.6
2017-08-18T12:37:48.788Z,940.6
2017-08-18T12:38:55.086Z,940.5
2017-08-18T12:40:03.176Z,940.5
2017-08-18T12:41:11.321Z,940.5
2017-08-18T12:42:19.438Z,940.4
2017-08-18T12:43:27.567Z,940.4
2017-08-18T12:44:35.546Z,940.4
2017-08-18T12:45:43.630Z,940.4
2017-08-18T12:46:51.714Z,940.4
2017-08-18T12:47:59.803Z,940.4
2017-08-18T12:49:07.951Z,940.3
2017-08-18T12:50:16.003Z,940.3
2017-08-18T12:51:24.074Z,940.3
2017-08-18T12:52:32.164Z,940.3
2017-08-18T12:53:40.256Z,940.3
2017-08-18T12:54:48.399Z,940.3
2017-08-18T12:55:56.556Z,940.2
2017-08-18T12:57:04.642Z,940.3
2017-08-18T12:58:12.619Z,940.2
2017-08-18T12:59:20.702Z,940.1
2017-08-18T13:00:28.847Z,940.1
2017-08-18T13:01:36.884Z,940.1
2017-08-18T13:02:44.994Z,940.1
2017-08-18T13:03:53.064Z,940.1
2017-08-18T13:05:01.154Z,940.1
2017-08-18T13:06:09.295Z,940.1
2017-08-18T13:07:17.341Z,940.1
2017-08-18T13:08:25.431Z,940.0
2017-08-18T13:09:33.519Z,939.9
2017-08-18T13:10:41.621Z,940.0
2017-08-18T13:11:49.763Z,940.0
2017-08-18T13:12:57.851Z,940.0
2017-08-18T13:14:05.887Z,939.9
2017-08-18T13:15:13.977Z,940.0
2017-08-18T13:16:22.068Z,939.9
2017-08-18T13:17:30.214Z,939.9
2017-08-18T13:18:38.246Z,939.9
2017-08-18T13:19:46.339Z,939.9
2017-08-18T13:20:54.430Z,939.9
2017-08-18T13:22:02.517Z,939.8
2017-08-18T13:23:10.665Z,939.9
2017-08-18T13:24:18.697Z,939.9
2017-08-18T13:25:26.787Z,939.8
2017-08-18T13:26:34.876Z,939.8
2017-08-18T13:27:43.155Z,939.8
2017-08-18T13:28:51.121Z,939.8
2017-08-18T13:29:59.154Z,939.7
2017-08-18T13:31:07.244Z,939.7
2017-08-18T13:32:15.498Z,939.7
2017-08-18T13:33:23.423Z,939.7
2017-08-18T13:34:31.573Z,939.6
2017-08-18T13:35:39.604Z,939.6
2017-08-18T13:36:47.701Z,939.6
2017-08-18T13:37:55.791Z,939.7
2017-08-18T13:39:03.878Z,939.6
2017-08-18T13:40:12.022Z,939.6
2017-08-18T13:41:20.159Z,939.6
2017-08-18T13:42:28.152Z,939.6
2017-08-18T13:43:36.243Z,939.6
2017-08-18T13:44:44.388Z,939.6
2017-08-18T13:45:52.574Z,939.5
2017-08-18T13:47:00.514Z,939.5
2017-08-18T13:48:08.604Z,939.5
2017-08-18T13:49:16.693Z,939.5
2017-08-18T13:50:24.782Z,939.4
2017-08-18T13:51:32.929Z,939.5
2017-08-18T13:52:40.964Z,939.5
2017-08-18T13:53:49.052Z,939.5
2017-08-18T13:54:57.217Z,939.5
2017-08-18T13:56:05.233Z,939.5
2017-08-18T13:57:13.381Z,939.5
2017-08-18T13:58:21.412Z,939.5
2017-08-18T13:59:29.669Z,939.5
2017-08-18T14:00:37.654Z,939.4
2017-08-18T14:01:45.683Z,939.4
2017-08-18T14:02:53.829Z,939.4
2017-08-18T14:04:01.863Z,939.4
2017-08-18T14:05:09.955Z,939.3
2017-08-18T14:06:18.044Z,939.3
2017-08-18T14:07:26.141Z,939.3
2017-08-18T14:08:34.281Z,939.2
2017-08-18T14:09:42.313Z,939.2
2017-08-18T14:10:50.406Z,939.2
2017-08-18T14:11:58.494Z,939.2
2017-08-18T14:13:06.709Z,939.2
2017-08-18T14:14:14.802Z,939.1
2017-08-18T14:15:22.762Z,939.1
2017-08-18T14:16:30.913Z,939.1
2017-08-18T14:17:38.948Z,939.0
2017-08-18T14:18:47.079Z,939.1
2017-08-18T14:19:55.246Z,939.0
2017-08-18T14:21:03.215Z,939.0
2017-08-18T14:22:11.381Z,939.0
2017-08-18T14:23:19.417Z,939.0
2017-08-18T14:24:27.492Z,939.0
2017-08-18T14:25:35.639Z,939.0
2017-08-18T14:26:43.674Z,939.0
2017-08-18T14:27:51.779Z,939.0
2017-08-18T14:28:59.861Z,938.9
2017-08-18T14:30:07.964Z,938.9
2017-08-18T14:31:16.175Z,938.9
2017-08-18T14:32:24.198Z,938.8
2017-08-18T14:33:32.233Z,938.7
2017-08-18T14:34:40.334Z,938.7
2017-08-18T14:35:48.595Z,938.7
2017-08-18T14:36:56.584Z,938.7
2017-08-18T14:38:04.620Z,938.6